sensor_id;sensor_type;location;lat;lon;timestamp;temperature;humidity
78619;DHT22;67941;52.506;5.470;2023-10-13T00:00:50;16.70;85.80
78619;DHT22;67941;52.506;5.470;2023-10-13T00:03:23;16.70;85.80
78619;DHT22;67941;52.506;5.470;2023-10-13T00:06:00;16.70;85.70
78619;DHT22;67941;52.506;5.470;2023-10-13T00:08:30;16.70;85.70
78619;DHT22;67941;52.506;5.470;2023-10-13T00:10:58;16.70;85.80
78619;DHT22;67941;52.506;5.470;2023-10-13T00:13:29;16.70;85.80
78619;DHT22;67941;52.506;5.470;2023-10-13T00:16:06;16.70;85.70
78619;DHT22;67941;52.506;5.470;2023-10-13T00:18:36;16.70;85.70
78619;DHT22;67941;52.506;5.470;2023-10-13T00:21:10;16.70;85.70
78619;DHT22;67941;52.506;5.470;2023-10-13T00:26:32;16.70;85.70
78619;DHT22;67941;52.506;5.470;2023-10-13T00:29:03;16.70;85.70
78619;DHT22;67941;52.506;5.470;2023-10-13T00:31:43;16.70;85.80
78619;DHT22;67941;52.506;5.470;2023-10-13T00:34:14;16.70;85.80
78619;DHT22;67941;52.506;5.470;2023-10-13T00:36:48;16.70;85.80
78619;DHT22;67941;52.506;5.470;2023-10-13T00:39:38;16.70;85.80
78619;DHT22;67941;52.506;5.470;2023-10-13T00:42:11;16.70;85.80
78619;DHT22;67941;52.506;5.470;2023-10-13T00:44:44;16.70;85.80
78619;DHT22;67941;52.506;5.470;2023-10-13T00:47:15;16.70;85.80
78619;DHT22;67941;52.506;5.470;2023-10-13T00:49:59;16.70;85.70
78619;DHT22;67941;52.506;5.470;2023-10-13T00:52:28;16.80;85.70
78619;DHT22;67941;52.506;5.470;2023-10-13T00:54:59;16.70;85.70
78619;DHT22;67941;52.506;5.470;2023-10-13T00:57:26;16.70;85.70
78619;DHT22;67941;52.506;5.470;2023-10-13T00:59:56;16.80;85.80
78619;DHT22;67941;52.506;5.470;2023-10-13T01:02:23;16.70;85.70
78619;DHT22;67941;52.506;5.470;2023-10-13T01:05:04;16.70;85.70
78619;DHT22;67941;52.506;5.470;2023-10-13T01:07:33;16.70;85.70
78619;DHT22;67941;52.506;5.470;2023-10-13T01:10:14;16.70;85.70
78619;DHT22;67941;52.506;5.470;2023-10-13T01:12:45;16.70;85.60
78619;DHT22;67941;52.506;5.470;2023-10-13T01:15:11;16.70;85.50
78619;DHT22;67941;52.506;5.470;2023-10-13T01:17:43;16.70;85.50
78619;DHT22;67941;52.506;5.470;2023-10-13T01:20:12;16.60;85.50
78619;DHT22;67941;52.506;5.470;2023-10-13T01:22:49;16.60;85.50
78619;DHT22;67941;52.506;5.470;2023-10-13T01:25:25;16.60;85.50
78619;DHT22;67941;52.506;5.470;2023-10-13T01:27:55;16.60;85.50
78619;DHT22;67941;52.506;5.470;2023-10-13T01:30:22;16.60;85.50
78619;DHT22;67941;52.506;5.470;2023-10-13T01:32:52;16.60;85.60
78619;DHT22;67941;52.506;5.470;2023-10-13T01:35:19;16.60;85.50
78619;DHT22;67941;52.506;5.470;2023-10-13T01:37:51;16.60;85.60
78619;DHT22;67941;52.506;5.470;2023-10-13T01:40:18;16.60;85.60
78619;DHT22;67941;52.506;5.470;2023-10-13T01:42:57;16.60;85.50
78619;DHT22;67941;52.506;5.470;2023-10-13T01:45:23;16.60;85.70
78619;DHT22;67941;52.506;5.470;2023-10-13T01:47:55;16.60;85.60
78619;DHT22;67941;52.506;5.470;2023-10-13T01:50:22;16.60;85.60
78619;DHT22;67941;52.506;5.470;2023-10-13T01:52:55;16.60;85.60
78619;DHT22;67941;52.506;5.470;2023-10-13T01:55:32;16.60;85.50
78619;DHT22;67941;52.506;5.470;2023-10-13T01:58:08;16.60;85.60
78619;DHT22;67941;52.506;5.470;2023-10-13T02:00:41;16.60;85.60
78619;DHT22;67941;52.506;5.470;2023-10-13T02:03:11;16.60;85.50
78619;DHT22;67941;52.506;5.470;2023-10-13T02:05:41;16.60;85.60
78619;DHT22;67941;52.506;5.470;2023-10-13T02:08:13;16.60;85.60
78619;DHT22;67941;52.506;5.470;2023-10-13T02:10:44;16.50;85.50
78619;DHT22;67941;52.506;5.470;2023-10-13T02:13:17;16.50;85.60
78619;DHT22;67941;52.506;5.470;2023-10-13T02:15:44;16.60;85.60
78619;DHT22;67941;52.506;5.470;2023-10-13T02:18:15;16.60;85.60
78619;DHT22;67941;52.506;5.470;2023-10-13T02:20:47;16.60;85.50
78619;DHT22;67941;52.506;5.470;2023-10-13T02:23:21;16.60;85.60
78619;DHT22;67941;52.506;5.470;2023-10-13T02:25:48;16.60;85.70
78619;DHT22;67941;52.506;5.470;2023-10-13T02:28:27;16.60;85.70
78619;DHT22;67941;52.506;5.470;2023-10-13T02:30:56;16.60;85.70
78619;DHT22;67941;52.506;5.470;2023-10-13T02:33:25;16.60;85.70
78619;DHT22;67941;52.506;5.470;2023-10-13T02:35:56;16.60;85.70
78619;DHT22;67941;52.506;5.470;2023-10-13T02:38:25;16.60;85.70
78619;DHT22;67941;52.506;5.470;2023-10-13T02:40:59;16.60;85.70
78619;DHT22;67941;52.506;5.470;2023-10-13T02:43:37;16.60;85.70
78619;DHT22;67941;52.506;5.470;2023-10-13T02:46:04;16.60;85.70
78619;DHT22;67941;52.506;5.470;2023-10-13T02:48:33;16.60;85.70
78619;DHT22;67941;52.506;5.470;2023-10-13T02:51:07;16.60;85.70
78619;DHT22;67941;52.506;5.470;2023-10-13T02:56:29;16.60;85.60
78619;DHT22;67941;52.506;5.470;2023-10-13T02:58:58;16.60;85.60
78619;DHT22;67941;52.506;5.470;2023-10-13T03:01:32;16.60;85.60
78619;DHT22;67941;52.506;5.470;2023-10-13T03:04:01;16.60;85.60
78619;DHT22;67941;52.506;5.470;2023-10-13T03:06:35;16.60;85.70
78619;DHT22;67941;52.506;5.470;2023-10-13T03:09:07;16.60;85.60
78619;DHT22;67941;52.506;5.470;2023-10-13T03:11:40;16.60;85.60
78619;DHT22;67941;52.506;5.470;2023-10-13T03:14:16;16.60;85.60
78619;DHT22;67941;52.506;5.470;2023-10-13T03:16:58;16.50;85.50
78619;DHT22;67941;52.506;5.470;2023-10-13T03:19:32;16.50;85.60
78619;DHT22;67941;52.506;5.470;2023-10-13T03:22:03;16.50;85.60
78619;DHT22;67941;52.506;5.470;2023-10-13T03:24:35;16.50;85.50
78619;DHT22;67941;52.506;5.470;2023-10-13T03:27:01;16.50;85.60
78619;DHT22;67941;52.506;5.470;2023-10-13T03:29:39;16.50;85.70
78619;DHT22;67941;52.506;5.470;2023-10-13T03:32:10;16.50;85.60
78619;DHT22;67941;52.506;5.470;2023-10-13T03:34:41;16.50;85.60
78619;DHT22;67941;52.506;5.470;2023-10-13T03:37:16;16.50;85.60
78619;DHT22;67941;52.506;5.470;2023-10-13T03:40:04;16.50;85.60
78619;DHT22;67941;52.506;5.470;2023-10-13T03:42:55;16.50;85.70
78619;DHT22;67941;52.506;5.470;2023-10-13T03:45:32;16.40;85.60
78619;DHT22;67941;52.506;5.470;2023-10-13T03:48:05;16.40;85.60
78619;DHT22;67941;52.506;5.470;2023-10-13T03:50:38;16.40;85.60
78619;DHT22;67941;52.506;5.470;2023-10-13T03:53:13;16.40;85.60
78619;DHT22;67941;52.506;5.470;2023-10-13T03:55:42;16.40;85.60
78619;DHT22;67941;52.506;5.470;2023-10-13T03:58:14;16.40;85.60
78619;DHT22;67941;52.506;5.470;2023-10-13T04:00:45;16.40;85.60
78619;DHT22;67941;52.506;5.470;2023-10-13T04:03:15;16.40;85.60
78619;DHT22;67941;52.506;5.470;2023-10-13T04:05:45;16.40;85.70
78619;DHT22;67941;52.506;5.470;2023-10-13T04:08:26;16.40;85.50
78619;DHT22;67941;52.506;5.470;2023-10-13T04:11:19;16.40;85.50
78619;DHT22;67941;52.506;5.470;2023-10-13T04:14:03;16.40;85.60
78619;DHT22;67941;52.506;5.470;2023-10-13T04:16:47;16.40;85.50
78619;DHT22;67941;52.506;5.470;2023-10-13T04:19:20;16.40;85.60
78619;DHT22;67941;52.506;5.470;2023-10-13T04:21:55;16.40;85.50
78619;DHT22;67941;52.506;5.470;2023-10-13T04:24:24;16.40;85.50
78619;DHT22;67941;52.506;5.470;2023-10-13T04:27:08;16.30;85.60
78619;DHT22;67941;52.506;5.470;2023-10-13T04:29:55;16.30;85.60
78619;DHT22;67941;52.506;5.470;2023-10-13T04:32:39;16.30;85.60
78619;DHT22;67941;52.506;5.470;2023-10-13T04:35:12;16.20;85.70
78619;DHT22;67941;52.506;5.470;2023-10-13T04:37:46;16.30;85.60
78619;DHT22;67941;52.506;5.470;2023-10-13T04:40:24;16.20;85.70
78619;DHT22;67941;52.506;5.470;2023-10-13T04:43:01;16.30;85.70
78619;DHT22;67941;52.506;5.470;2023-10-13T04:45:31;16.30;85.60
78619;DHT22;67941;52.506;5.470;2023-10-13T04:48:22;16.30;85.60
78619;DHT22;67941;52.506;5.470;2023-10-13T04:50:59;16.20;85.60
78619;DHT22;67941;52.506;5.470;2023-10-13T04:53:53;16.20;85.60
78619;DHT22;67941;52.506;5.470;2023-10-13T04:56:51;16.20;85.60
78619;DHT22;67941;52.506;5.470;2023-10-13T04:59:46;16.20;85.60
78619;DHT22;67941;52.506;5.470;2023-10-13T05:02:47;16.20;85.50
78619;DHT22;67941;52.506;5.470;2023-10-13T05:05:54;16.20;85.60
78619;DHT22;67941;52.506;5.470;2023-10-13T05:08:35;16.20;85.50
78619;DHT22;67941;52.506;5.470;2023-10-13T05:11:16;16.10;85.60
78619;DHT22;67941;52.506;5.470;2023-10-13T05:13:58;16.10;85.60
78619;DHT22;67941;52.506;5.470;2023-10-13T05:16:39;16.10;85.60
78619;DHT22;67941;52.506;5.470;2023-10-13T05:19:20;16.10;85.60
78619;DHT22;67941;52.506;5.470;2023-10-13T05:22:04;16.10;85.50
78619;DHT22;67941;52.506;5.470;2023-10-13T05:24:45;16.10;85.60
78619;DHT22;67941;52.506;5.470;2023-10-13T05:27:27;16.10;85.70
78619;DHT22;67941;52.506;5.470;2023-10-13T05:30:09;16.10;85.70
78619;DHT22;67941;52.506;5.470;2023-10-13T05:32:50;16.10;85.70
78619;DHT22;67941;52.506;5.470;2023-10-13T05:35:32;16.10;85.70
78619;DHT22;67941;52.506;5.470;2023-10-13T05:38:15;16.10;85.70
78619;DHT22;67941;52.506;5.470;2023-10-13T05:40:58;16.20;85.80
78619;DHT22;67941;52.506;5.470;2023-10-13T05:43:40;16.20;85.80
78619;DHT22;67941;52.506;5.470;2023-10-13T05:46:33;16.20;85.90
78619;DHT22;67941;52.506;5.470;2023-10-13T05:49:27;16.20;85.90
78619;DHT22;67941;52.506;5.470;2023-10-13T05:52:16;16.30;85.90
78619;DHT22;67941;52.506;5.470;2023-10-13T05:55:10;16.40;85.90
78619;DHT22;67941;52.506;5.470;2023-10-13T05:57:52;16.40;85.90
78619;DHT22;67941;52.506;5.470;2023-10-13T06:00:38;16.40;85.90
78619;DHT22;67941;52.506;5.470;2023-10-13T06:03:20;16.40;85.90
78619;DHT22;67941;52.506;5.470;2023-10-13T06:06:01;16.40;85.90
78619;DHT22;67941;52.506;5.470;2023-10-13T06:08:42;16.50;85.90
78619;DHT22;67941;52.506;5.470;2023-10-13T06:11:26;16.50;85.90
78619;DHT22;67941;52.506;5.470;2023-10-13T06:14:07;16.50;85.80
78619;DHT22;67941;52.506;5.470;2023-10-13T06:16:48;16.50;85.90
78619;DHT22;67941;52.506;5.470;2023-10-13T06:19:30;16.50;85.90
78619;DHT22;67941;52.506;5.470;2023-10-13T06:22:11;16.50;85.90
78619;DHT22;67941;52.506;5.470;2023-10-13T06:24:52;16.50;85.90
78619;DHT22;67941;52.506;5.470;2023-10-13T06:27:36;16.40;85.90
78619;DHT22;67941;52.506;5.470;2023-10-13T06:30:17;16.40;85.90
78619;DHT22;67941;52.506;5.470;2023-10-13T06:32:46;16.40;85.90
78619;DHT22;67941;52.506;5.470;2023-10-13T06:35:16;16.50;86.00
78619;DHT22;67941;52.506;5.470;2023-10-13T06:37:49;16.50;86.00
78619;DHT22;67941;52.506;5.470;2023-10-13T06:40:18;16.50;86.00
78619;DHT22;67941;52.506;5.470;2023-10-13T06:43:01;16.50;86.10
78619;DHT22;67941;52.506;5.470;2023-10-13T06:45:48;16.50;86.00
78619;DHT22;67941;52.506;5.470;2023-10-13T06:48:25;16.50;86.10
78619;DHT22;67941;52.506;5.470;2023-10-13T06:50:59;16.50;86.10
78619;DHT22;67941;52.506;5.470;2023-10-13T06:53:32;16.50;86.10
78619;DHT22;67941;52.506;5.470;2023-10-13T06:56:06;16.50;86.10
78619;DHT22;67941;52.506;5.470;2023-10-13T06:58:39;16.50;86.10
78619;DHT22;67941;52.506;5.470;2023-10-13T07:01:09;16.50;86.10
78619;DHT22;67941;52.506;5.470;2023-10-13T07:03:41;16.50;86.20
78619;DHT22;67941;52.506;5.470;2023-10-13T07:06:14;16.50;86.20
78619;DHT22;67941;52.506;5.470;2023-10-13T07:08:45;16.50;86.20
78619;DHT22;67941;52.506;5.470;2023-10-13T07:11:18;16.50;86.10
78619;DHT22;67941;52.506;5.470;2023-10-13T07:14:02;16.50;86.10
78619;DHT22;67941;52.506;5.470;2023-10-13T07:16:42;16.50;86.10
78619;DHT22;67941;52.506;5.470;2023-10-13T07:19:12;16.50;86.10
78619;DHT22;67941;52.506;5.470;2023-10-13T07:21:44;16.50;86.10
78619;DHT22;67941;52.506;5.470;2023-10-13T07:24:14;16.40;86.10
78619;DHT22;67941;52.506;5.470;2023-10-13T07:26:43;16.40;86.10
78619;DHT22;67941;52.506;5.470;2023-10-13T07:29:15;16.40;86.10
78619;DHT22;67941;52.506;5.470;2023-10-13T07:31:44;16.40;86.10
78619;DHT22;67941;52.506;5.470;2023-10-13T07:34:16;16.40;86.20
78619;DHT22;67941;52.506;5.470;2023-10-13T07:36:53;16.50;86.20
78619;DHT22;67941;52.506;5.470;2023-10-13T07:39:44;16.50;86.30
78619;DHT22;67941;52.506;5.470;2023-10-13T07:42:16;16.60;86.30
78619;DHT22;67941;52.506;5.470;2023-10-13T07:44:48;16.60;86.30
78619;DHT22;67941;52.506;5.470;2023-10-13T07:47:21;16.60;86.30
78619;DHT22;67941;52.506;5.470;2023-10-13T07:49:52;16.70;86.30
78619;DHT22;67941;52.506;5.470;2023-10-13T07:52:22;16.70;86.30
78619;DHT22;67941;52.506;5.470;2023-10-13T07:55:02;16.80;86.40
78619;DHT22;67941;52.506;5.470;2023-10-13T07:57:45;16.80;86.40
78619;DHT22;67941;52.506;5.470;2023-10-13T08:00:27;16.90;86.40
78619;DHT22;67941;52.506;5.470;2023-10-13T08:03:12;16.90;86.40
78619;DHT22;67941;52.506;5.470;2023-10-13T08:05:58;17.00;86.50
78619;DHT22;67941;52.506;5.470;2023-10-13T08:08:30;17.00;86.50
78619;DHT22;67941;52.506;5.470;2023-10-13T08:11:04;17.20;86.50
78619;DHT22;67941;52.506;5.470;2023-10-13T08:13:38;17.20;86.50
78619;DHT22;67941;52.506;5.470;2023-10-13T08:16:14;17.20;86.50
78619;DHT22;67941;52.506;5.470;2023-10-13T08:18:47;17.30;86.50
78619;DHT22;67941;52.506;5.470;2023-10-13T08:21:17;17.40;86.60
78619;DHT22;67941;52.506;5.470;2023-10-13T08:23:49;17.50;86.60
78619;DHT22;67941;52.506;5.470;2023-10-13T08:26:32;17.50;86.60
78619;DHT22;67941;52.506;5.470;2023-10-13T08:29:20;17.60;86.60
78619;DHT22;67941;52.506;5.470;2023-10-13T08:32:04;17.70;86.60
78619;DHT22;67941;52.506;5.470;2023-10-13T08:34:47;17.80;86.50
78619;DHT22;67941;52.506;5.470;2023-10-13T08:37:36;17.80;86.50
78619;DHT22;67941;52.506;5.470;2023-10-13T08:40:23;17.80;86.50
78619;DHT22;67941;52.506;5.470;2023-10-13T08:43:05;17.80;86.50
78619;DHT22;67941;52.506;5.470;2023-10-13T08:45:38;17.90;86.30
78619;DHT22;67941;52.506;5.470;2023-10-13T08:48:22;18.00;86.40
78619;DHT22;67941;52.506;5.470;2023-10-13T08:50:57;18.00;86.30
78619;DHT22;67941;52.506;5.470;2023-10-13T08:53:32;18.00;86.30
78619;DHT22;67941;52.506;5.470;2023-10-13T08:56:00;18.00;86.30
78619;DHT22;67941;52.506;5.470;2023-10-13T08:58:33;18.10;86.20
78619;DHT22;67941;52.506;5.470;2023-10-13T09:01:14;18.10;86.20
78619;DHT22;67941;52.506;5.470;2023-10-13T09:04:05;18.10;86.20
78619;DHT22;67941;52.506;5.470;2023-10-13T09:06:47;18.10;86.20
78619;DHT22;67941;52.506;5.470;2023-10-13T09:09:26;18.20;86.20
78619;DHT22;67941;52.506;5.470;2023-10-13T09:11:53;18.20;86.20
78619;DHT22;67941;52.506;5.470;2023-10-13T09:14:34;18.30;86.20
78619;DHT22;67941;52.506;5.470;2023-10-13T09:17:04;18.40;86.10
78619;DHT22;67941;52.506;5.470;2023-10-13T09:19:50;18.40;86.00
78619;DHT22;67941;52.506;5.470;2023-10-13T09:22:42;18.40;85.90
78619;DHT22;67941;52.506;5.470;2023-10-13T09:25:10;18.40;85.80
78619;DHT22;67941;52.506;5.470;2023-10-13T09:27:41;18.40;85.80
78619;DHT22;67941;52.506;5.470;2023-10-13T09:30:08;18.40;85.80
78619;DHT22;67941;52.506;5.470;2023-10-13T09:32:44;18.50;85.90
78619;DHT22;67941;52.506;5.470;2023-10-13T09:35:19;18.50;86.00
78619;DHT22;67941;52.506;5.470;2023-10-13T09:37:51;18.60;85.90
78619;DHT22;67941;52.506;5.470;2023-10-13T09:40:23;18.60;85.90
78619;DHT22;67941;52.506;5.470;2023-10-13T09:43:01;18.70;85.80
78619;DHT22;67941;52.506;5.470;2023-10-13T09:45:34;18.70;85.80
78619;DHT22;67941;52.506;5.470;2023-10-13T09:48:10;18.80;85.70
78619;DHT22;67941;52.506;5.470;2023-10-13T09:50:47;18.90;85.70
78619;DHT22;67941;52.506;5.470;2023-10-13T09:53:17;18.90;85.70
78619;DHT22;67941;52.506;5.470;2023-10-13T09:55:47;19.00;85.50
78619;DHT22;67941;52.506;5.470;2023-10-13T09:58:18;19.10;85.50
78619;DHT22;67941;52.506;5.470;2023-10-13T10:00:48;19.10;85.30
78619;DHT22;67941;52.506;5.470;2023-10-13T10:03:32;19.10;85.20
78619;DHT22;67941;52.506;5.470;2023-10-13T10:06:23;19.20;85.10
78619;DHT22;67941;52.506;5.470;2023-10-13T10:09:06;19.20;85.00
78619;DHT22;67941;52.506;5.470;2023-10-13T10:12:00;19.20;85.00
78619;DHT22;67941;52.506;5.470;2023-10-13T10:14:46;19.20;84.90
78619;DHT22;67941;52.506;5.470;2023-10-13T10:17:18;19.20;84.90
78619;DHT22;67941;52.506;5.470;2023-10-13T10:19:48;19.20;84.90
78619;DHT22;67941;52.506;5.470;2023-10-13T10:22:30;19.20;84.90
78619;DHT22;67941;52.506;5.470;2023-10-13T10:25:00;19.30;84.80
78619;DHT22;67941;52.506;5.470;2023-10-13T10:27:30;19.30;84.80
78619;DHT22;67941;52.506;5.470;2023-10-13T10:30:00;19.40;84.70
78619;DHT22;67941;52.506;5.470;2023-10-13T10:32:34;19.40;84.60
78619;DHT22;67941;52.506;5.470;2023-10-13T10:35:07;19.50;84.60
78619;DHT22;67941;52.506;5.470;2023-10-13T10:37:43;19.50;84.60
78619;DHT22;67941;52.506;5.470;2023-10-13T10:40:15;19.70;84.60
78619;DHT22;67941;52.506;5.470;2023-10-13T10:43:00;19.80;84.70
78619;DHT22;67941;52.506;5.470;2023-10-13T10:45:36;20.00;84.60
78619;DHT22;67941;52.506;5.470;2023-10-13T10:48:12;20.10;84.50
78619;DHT22;67941;52.506;5.470;2023-10-13T10:50:51;20.30;84.30
78619;DHT22;67941;52.506;5.470;2023-10-13T10:53:25;20.50;84.00
78619;DHT22;67941;52.506;5.470;2023-10-13T10:56:06;20.50;83.80
78619;DHT22;67941;52.506;5.470;2023-10-13T10:58:45;20.60;83.60
78619;DHT22;67941;52.506;5.470;2023-10-13T11:01:15;20.70;83.50
78619;DHT22;67941;52.506;5.470;2023-10-13T11:03:54;20.70;83.50
78619;DHT22;67941;52.506;5.470;2023-10-13T11:06:26;20.80;83.40
78619;DHT22;67941;52.506;5.470;2023-10-13T11:09:06;20.90;83.30
78619;DHT22;67941;52.506;5.470;2023-10-13T11:11:45;21.10;83.20
78619;DHT22;67941;52.506;5.470;2023-10-13T11:14:22;21.10;83.20
78619;DHT22;67941;52.506;5.470;2023-10-13T11:16:54;21.30;83.00
78619;DHT22;67941;52.506;5.470;2023-10-13T11:19:33;21.40;82.60
78619;DHT22;67941;52.506;5.470;2023-10-13T11:22:09;21.40;82.40
78619;DHT22;67941;52.506;5.470;2023-10-13T11:24:58;21.30;82.50
78619;DHT22;67941;52.506;5.470;2023-10-13T11:27:35;21.10;82.50
78619;DHT22;67941;52.506;5.470;2023-10-13T11:30:22;21.10;82.30
78619;DHT22;67941;52.506;5.470;2023-10-13T11:33:02;21.00;82.30
78619;DHT22;67941;52.506;5.470;2023-10-13T11:35:33;20.90;82.30
78619;DHT22;67941;52.506;5.470;2023-10-13T11:38:24;20.90;82.30
78619;DHT22;67941;52.506;5.470;2023-10-13T11:40:59;20.90;82.10
78619;DHT22;67941;52.506;5.470;2023-10-13T11:43:42;20.90;81.80
78619;DHT22;67941;52.506;5.470;2023-10-13T11:46:49;20.80;81.70
78619;DHT22;67941;52.506;5.470;2023-10-13T11:49:22;20.70;81.70
78619;DHT22;67941;52.506;5.470;2023-10-13T11:52:05;20.60;81.60
78619;DHT22;67941;52.506;5.470;2023-10-13T11:54:51;20.60;81.50
78619;DHT22;67941;52.506;5.470;2023-10-13T11:57:22;20.50;81.40
78619;DHT22;67941;52.506;5.470;2023-10-13T11:59:52;20.50;81.40
78619;DHT22;67941;52.506;5.470;2023-10-13T12:02:46;20.50;81.30
78619;DHT22;67941;52.506;5.470;2023-10-13T12:05:28;20.50;81.30
78619;DHT22;67941;52.506;5.470;2023-10-13T12:08:14;20.50;81.20
78619;DHT22;67941;52.506;5.470;2023-10-13T12:10:48;20.50;81.10
78619;DHT22;67941;52.506;5.470;2023-10-13T12:13:28;20.50;81.00
78619;DHT22;67941;52.506;5.470;2023-10-13T12:15:57;20.50;80.80
78619;DHT22;67941;52.506;5.470;2023-10-13T12:18:34;20.50;80.70
78619;DHT22;67941;52.506;5.470;2023-10-13T12:21:08;20.50;80.60
78619;DHT22;67941;52.506;5.470;2023-10-13T12:23:39;20.50;80.50
78619;DHT22;67941;52.506;5.470;2023-10-13T12:26:11;20.60;80.40
78619;DHT22;67941;52.506;5.470;2023-10-13T12:28:47;20.60;80.10
78619;DHT22;67941;52.506;5.470;2023-10-13T12:31:31;20.60;79.90
78619;DHT22;67941;52.506;5.470;2023-10-13T12:34:04;20.60;79.80
78619;DHT22;67941;52.506;5.470;2023-10-13T12:36:40;20.60;79.60
78619;DHT22;67941;52.506;5.470;2023-10-13T12:39:19;20.50;79.40
78619;DHT22;67941;52.506;5.470;2023-10-13T12:42:00;20.50;79.50
78619;DHT22;67941;52.506;5.470;2023-10-13T12:44:44;20.50;79.50
78619;DHT22;67941;52.506;5.470;2023-10-13T12:47:25;20.40;79.50
78619;DHT22;67941;52.506;5.470;2023-10-13T12:50:07;20.30;79.60
78619;DHT22;67941;52.506;5.470;2023-10-13T12:52:40;20.30;79.50
78619;DHT22;67941;52.506;5.470;2023-10-13T12:55:11;20.30;79.40
78619;DHT22;67941;52.506;5.470;2023-10-13T12:57:45;20.30;79.40
78619;DHT22;67941;52.506;5.470;2023-10-13T13:00:17;20.30;79.30
78619;DHT22;67941;52.506;5.470;2023-10-13T13:02:51;20.30;79.30
78619;DHT22;67941;52.506;5.470;2023-10-13T13:05:22;20.30;79.10
78619;DHT22;67941;52.506;5.470;2023-10-13T13:07:54;20.30;79.10
78619;DHT22;67941;52.506;5.470;2023-10-13T13:10:23;20.20;79.00
78619;DHT22;67941;52.506;5.470;2023-10-13T13:13:02;20.10;78.90
78619;DHT22;67941;52.506;5.470;2023-10-13T13:15:34;20.00;78.80
78619;DHT22;67941;52.506;5.470;2023-10-13T13:18:03;19.90;78.90
78619;DHT22;67941;52.506;5.470;2023-10-13T13:20:38;19.70;79.00
78619;DHT22;67941;52.506;5.470;2023-10-13T13:23:18;19.70;79.00
78619;DHT22;67941;52.506;5.470;2023-10-13T13:25:47;19.60;79.10
78619;DHT22;67941;52.506;5.470;2023-10-13T13:28:16;19.60;79.30
78619;DHT22;67941;52.506;5.470;2023-10-13T13:30:52;19.60;79.20
78619;DHT22;67941;52.506;5.470;2023-10-13T13:33:20;19.60;79.20
78619;DHT22;67941;52.506;5.470;2023-10-13T13:35:55;19.60;79.30
78619;DHT22;67941;52.506;5.470;2023-10-13T13:38:25;19.60;79.30
78619;DHT22;67941;52.506;5.470;2023-10-13T13:40:57;19.60;79.20
78619;DHT22;67941;52.506;5.470;2023-10-13T13:43:28;19.60;79.20
78619;DHT22;67941;52.506;5.470;2023-10-13T13:46:15;19.50;79.10
78619;DHT22;67941;52.506;5.470;2023-10-13T13:48:45;19.50;79.10
78619;DHT22;67941;52.506;5.470;2023-10-13T13:51:14;19.40;79.20
78619;DHT22;67941;52.506;5.470;2023-10-13T13:53:45;19.30;79.30
78619;DHT22;67941;52.506;5.470;2023-10-13T13:56:15;19.30;79.50
78619;DHT22;67941;52.506;5.470;2023-10-13T13:58:44;19.30;79.50
78619;DHT22;67941;52.506;5.470;2023-10-13T14:01:16;19.30;79.60
78619;DHT22;67941;52.506;5.470;2023-10-13T14:03:48;19.30;79.80
78619;DHT22;67941;52.506;5.470;2023-10-13T14:06:20;19.30;79.80
78619;DHT22;67941;52.506;5.470;2023-10-13T14:08:51;19.30;79.80
78619;DHT22;67941;52.506;5.470;2023-10-13T14:11:22;19.40;79.80
78619;DHT22;67941;52.506;5.470;2023-10-13T14:13:48;19.40;79.80
78619;DHT22;67941;52.506;5.470;2023-10-13T14:16:24;19.40;79.80
78619;DHT22;67941;52.506;5.470;2023-10-13T14:18:53;19.40;79.70
78619;DHT22;67941;52.506;5.470;2023-10-13T14:21:22;19.40;79.70
78619;DHT22;67941;52.506;5.470;2023-10-13T14:23:51;19.40;79.70
78619;DHT22;67941;52.506;5.470;2023-10-13T14:26:21;19.30;79.60
78619;DHT22;67941;52.506;5.470;2023-10-13T14:28:51;19.30;79.50
78619;DHT22;67941;52.506;5.470;2023-10-13T14:31:30;19.20;79.50
78619;DHT22;67941;52.506;5.470;2023-10-13T14:33:59;19.10;79.40
78619;DHT22;67941;52.506;5.470;2023-10-13T14:36:28;19.00;79.50
78619;DHT22;67941;52.506;5.470;2023-10-13T14:39:01;18.80;79.50
78619;DHT22;67941;52.506;5.470;2023-10-13T14:41:30;18.70;79.60
78619;DHT22;67941;52.506;5.470;2023-10-13T14:43:59;18.60;79.70
78619;DHT22;67941;52.506;5.470;2023-10-13T14:46:33;18.50;79.80
78619;DHT22;67941;52.506;5.470;2023-10-13T14:49:05;18.40;80.00
78619;DHT22;67941;52.506;5.470;2023-10-13T14:51:34;18.30;80.10
78619;DHT22;67941;52.506;5.470;2023-10-13T14:54:05;18.30;80.20
78619;DHT22;67941;52.506;5.470;2023-10-13T14:56:34;18.20;80.40
78619;DHT22;67941;52.506;5.470;2023-10-13T14:59:03;18.10;80.50
78619;DHT22;67941;52.506;5.470;2023-10-13T15:01:35;18.10;80.50
78619;DHT22;67941;52.506;5.470;2023-10-13T15:04:04;18.00;80.70
78619;DHT22;67941;52.506;5.470;2023-10-13T15:06:33;18.00;80.80
78619;DHT22;67941;52.506;5.470;2023-10-13T15:09:02;18.00;80.90
78619;DHT22;67941;52.506;5.470;2023-10-13T15:11:36;18.00;80.90
78619;DHT22;67941;52.506;5.470;2023-10-13T15:14:06;18.00;81.00
78619;DHT22;67941;52.506;5.470;2023-10-13T15:16:37;17.90;81.10
78619;DHT22;67941;52.506;5.470;2023-10-13T15:19:08;17.90;81.20
78619;DHT22;67941;52.506;5.470;2023-10-13T15:21:38;17.90;81.20
78619;DHT22;67941;52.506;5.470;2023-10-13T15:24:08;17.80;81.40
78619;DHT22;67941;52.506;5.470;2023-10-13T15:26:42;17.80;81.40
78619;DHT22;67941;52.506;5.470;2023-10-13T15:29:14;17.80;81.50
78619;DHT22;67941;52.506;5.470;2023-10-13T15:31:47;17.80;81.50
78619;DHT22;67941;52.506;5.470;2023-10-13T15:34:31;17.80;81.50
78619;DHT22;67941;52.506;5.470;2023-10-13T15:37:00;17.80;81.60
78619;DHT22;67941;52.506;5.470;2023-10-13T15:39:30;17.80;81.60
78619;DHT22;67941;52.506;5.470;2023-10-13T15:42:02;17.80;81.70
78619;DHT22;67941;52.506;5.470;2023-10-13T15:44:34;17.80;81.80
78619;DHT22;67941;52.506;5.470;2023-10-13T15:47:06;17.80;81.90
78619;DHT22;67941;52.506;5.470;2023-10-13T15:49:38;17.80;82.00
78619;DHT22;67941;52.506;5.470;2023-10-13T15:52:08;17.80;82.00
78619;DHT22;67941;52.506;5.470;2023-10-13T15:54:36;17.80;82.10
78619;DHT22;67941;52.506;5.470;2023-10-13T15:57:08;17.80;82.20
78619;DHT22;67941;52.506;5.470;2023-10-13T15:59:42;17.80;82.20
78619;DHT22;67941;52.506;5.470;2023-10-13T16:02:14;17.80;82.30
78619;DHT22;67941;52.506;5.470;2023-10-13T16:04:46;17.80;82.40
78619;DHT22;67941;52.506;5.470;2023-10-13T16:07:15;17.80;82.50
78619;DHT22;67941;52.506;5.470;2023-10-13T16:09:44;17.80;82.40
78619;DHT22;67941;52.506;5.470;2023-10-13T16:12:22;17.90;82.50
78619;DHT22;67941;52.506;5.470;2023-10-13T16:14:54;17.90;82.60
78619;DHT22;67941;52.506;5.470;2023-10-13T16:17:25;18.00;82.60
78619;DHT22;67941;52.506;5.470;2023-10-13T16:19:54;18.00;82.60
78619;DHT22;67941;52.506;5.470;2023-10-13T16:22:23;18.00;82.70
78619;DHT22;67941;52.506;5.470;2023-10-13T16:24:52;18.00;82.70
78619;DHT22;67941;52.506;5.470;2023-10-13T16:27:21;18.00;82.70